Ogdensburg, NY

4:25 AM EDT on May 29, 2015 (GMT -0400)
2nd ward | | Change Station
CLOSE
Current Station
Personal Weather Station
Location: Ogdensburg, NY
Elevation: 292 ft
Nearby Weather Stations

Elev 292 ft 44.69 °N, 75.50 °W | Updated 3 minutes ago

Partly Cloudy
Partly Cloudy
51.6 °F
Feels Like 51.6 °F
N
0.0
Wind Variable Wind from South

Today
High -- | Low -- °F
--% Chance of Precip.
Yesterday
High -- | Low -- °F
Precip. -- in
5:21 AM 8:37 PM
Waxing Gibbous, 82% visible
Pressure 30.30 in
Visibility 1.5 miles
Clouds Overcast 100 ft
Dew Point 51 °F
Humidity 99%
Rainfall 0.00 in
Snow Depth Not available.
UV 0 out of 12
Pollen 9.00 out of 12
Air Quality Not available.
Flu Activity Widespread
SPECI KMSS 290817Z AUTO 00000KT 1 1/2SM BR OVC001 08/07 A3030 RMK AO2 T00830072

More Conditions Fewer Conditions

Pressure 30.30 in
Visibility 1.5 miles
Clouds Overcast 100 ft
Dew Point 51 °F
Humidity 99%
Rainfall 0.00 in
Snow Depth Not available.
UV 0 out of 12
Pollen 9.00 out of 12
Air Quality Not available.
Flu Activity Widespread
SPECI KMSS 290817Z AUTO 00000KT 1 1/2SM BR OVC001 08/07 A3030 RMK AO2 T00830072

More Conditions Fewer Conditions

10-Day Weather Forecast

Almanac

Astronomy

May. 29, 2015 Rise Set
Actual Time
Civil Twilight
Nautical Twilight
Astronomical Twilight
Moon
Length of Visible Light
Length of Day
Tomorrow will be .
, % of the Moon is Illuminated

Today's Extremes

State Highs State Lows

Community

WunderPhotos

Upload Photos

1,825,221 photos uploaded!

WunderBlogs® & News

Nearby

Air Quality

  Air Quality AQ Index Pollutant
Not available.

Snow Depth

Station Depth Elevation

Earthquake Activity

City Distance Mag. Time & Date
Minimum magnitude displayed is 2.5.

Coastal Water Temperatures

Place Temperature

Stations

Nearby Weather Stations

Station Location Temp. Windchill Dew Point Humidity Wind Precip. Elev Updated Type